createdAt,value
2023-04-21T00:00:10.882Z,60.73
2023-04-21T00:03:00.438Z,61.11
2023-04-21T00:05:30.068Z,61.07
2023-04-21T00:07:59.514Z,60.70
2023-04-21T00:10:28.463Z,60.67
2023-04-21T00:12:57.207Z,60.76
2023-04-21T00:15:26.482Z,60.82
2023-04-21T00:17:56.468Z,60.40
2023-04-21T00:20:29.503Z,60.15
2023-04-21T00:22:58.978Z,60.52
2023-04-21T00:25:28.383Z,60.81
2023-04-21T00:27:57.454Z,60.95
2023-04-21T00:30:27.178Z,60.56
2023-04-21T00:32:56.530Z,60.39
2023-04-21T00:35:26.351Z,59.92
2023-04-21T00:37:55.354Z,60.25
2023-04-21T00:40:24.429Z,60.06
2023-04-21T00:42:53.573Z,59.83
2023-04-21T00:45:22.670Z,59.64
2023-04-21T00:47:52.769Z,59.45
2023-04-21T00:50:22.501Z,60.01
2023-04-21T00:52:52.043Z,60.52
2023-04-21T00:55:22.078Z,60.96
2023-04-21T00:57:52.623Z,61.05
2023-04-21T01:00:21.973Z,61.41
2023-04-21T01:02:51.792Z,61.86
2023-04-21T01:05:21.401Z,62.01
2023-04-21T01:07:50.895Z,61.81
2023-04-21T01:10:20.212Z,61.81
2023-04-21T01:12:49.597Z,62.24
2023-04-21T01:15:19.038Z,62.16
2023-04-21T01:17:50.474Z,61.85
2023-04-21T01:20:20.047Z,61.66
2023-04-21T01:22:50.208Z,61.49
2023-04-21T01:25:23.047Z,61.83
2023-04-21T01:27:53.037Z,61.99
2023-04-21T01:30:22.706Z,61.75
2023-04-21T01:32:52.281Z,61.59
2023-04-21T01:35:22.009Z,61.61
2023-04-21T01:37:52.310Z,61.67
2023-04-21T01:40:21.866Z,61.89
2023-04-21T01:42:52.112Z,61.80
2023-04-21T01:45:21.175Z,61.87
2023-04-21T01:47:50.234Z,62.08
2023-04-21T01:50:19.625Z,62.29
2023-04-21T01:52:49.602Z,62.37
2023-04-21T01:55:19.400Z,62.00
2023-04-21T01:57:48.365Z,61.73
2023-04-21T02:00:17.678Z,62.26
2023-04-21T02:02:46.891Z,62.22
2023-04-21T02:05:16.403Z,61.77
2023-04-21T02:07:46.014Z,61.59
2023-04-21T02:10:14.851Z,61.47
2023-04-21T02:12:43.911Z,61.92
2023-04-21T02:15:13.142Z,62.16
2023-04-21T02:17:43.402Z,62.11
2023-04-21T02:20:13.140Z,62.14
2023-04-21T02:22:42.517Z,62.24
2023-04-21T02:25:11.826Z,62.53
2023-04-21T02:27:40.795Z,62.59
2023-04-21T02:30:10.272Z,62.16
2023-04-21T02:32:39.766Z,62.09
2023-04-21T02:35:09.210Z,62.16
2023-04-21T02:37:38.225Z,62.49
2023-04-21T02:40:08.086Z,62.63
2023-04-21T02:42:36.664Z,62.67
2023-04-21T02:45:05.885Z,62.52
2023-04-21T02:47:34.449Z,62.58
2023-04-21T02:50:04.606Z,62.92
2023-04-21T02:52:37.913Z,62.71
2023-04-21T02:55:07.189Z,62.80
2023-04-21T02:57:36.196Z,63.06
2023-04-21T03:00:07.754Z,63.15
2023-04-21T03:02:36.706Z,63.31
2023-04-21T03:05:07.078Z,63.32
2023-04-21T03:07:36.652Z,63.48
2023-04-21T03:10:07.093Z,63.76
2023-04-21T03:12:36.430Z,64.01
2023-04-21T03:15:06.032Z,64.08
2023-04-21T03:17:35.253Z,64.27
2023-04-21T03:20:07.379Z,64.28
2023-04-21T03:22:36.974Z,64.04
2023-04-21T03:25:08.017Z,63.39
2023-04-21T03:27:37.157Z,63.00
2023-04-21T03:30:07.475Z,62.94
2023-04-21T03:32:36.448Z,63.47
2023-04-21T03:35:05.809Z,63.88
2023-04-21T03:37:34.756Z,63.73
2023-04-21T03:40:06.571Z,63.55
2023-04-21T03:42:36.707Z,63.45
2023-04-21T03:45:07.251Z,63.40
2023-04-21T03:47:36.958Z,63.12
2023-04-21T03:50:06.870Z,62.94
2023-04-21T03:52:36.008Z,62.99
2023-04-21T03:55:05.666Z,63.50
2023-04-21T03:57:35.094Z,63.93
2023-04-21T04:00:05.849Z,63.80
2023-04-21T04:02:35.358Z,63.99
2023-04-21T04:05:05.960Z,64.38
2023-04-21T04:07:35.933Z,64.69
2023-04-21T04:10:05.368Z,64.71
2023-04-21T04:12:35.045Z,64.59
2023-04-21T04:15:04.406Z,64.39
2023-04-21T04:17:33.422Z,64.57
2023-04-21T04:20:05.217Z,64.64
2023-04-21T04:22:36.393Z,64.37
2023-04-21T04:25:05.888Z,64.35
2023-04-21T04:27:35.401Z,64.42
2023-04-21T04:30:06.579Z,64.54
2023-04-21T04:32:36.382Z,64.15
2023-04-21T04:35:07.414Z,64.20
2023-04-21T04:37:38.228Z,64.33
2023-04-21T04:40:10.704Z,64.22
2023-04-21T04:42:43.138Z,63.66
2023-04-21T04:45:12.271Z,62.80
2023-04-21T04:47:41.814Z,62.17
2023-04-21T04:50:11.525Z,61.87
2023-04-21T04:52:41.079Z,61.98
2023-04-21T04:55:10.302Z,61.72
2023-04-21T04:57:39.827Z,61.33
2023-04-21T05:00:11.907Z,61.14
2023-04-21T05:02:42.353Z,61.02
2023-04-21T05:05:11.929Z,61.35
2023-04-21T05:07:41.784Z,61.64
2023-04-21T05:10:11.077Z,62.35
2023-04-21T05:12:40.280Z,62.77
2023-04-21T05:15:10.093Z,63.07
2023-04-21T05:17:39.583Z,62.97
2023-04-21T05:20:11.705Z,62.59
2023-04-21T05:22:41.708Z,62.19
2023-04-21T05:25:21.040Z,62.25
2023-04-21T05:27:51.034Z,62.26
2023-04-21T05:30:20.548Z,62.06
2023-04-21T05:32:49.864Z,61.78
2023-04-21T05:35:20.794Z,61.69
2023-04-21T05:37:50.097Z,61.91
2023-04-21T05:40:19.768Z,62.02
2023-04-21T05:42:49.871Z,61.76
2023-04-21T05:45:18.894Z,61.70
2023-04-21T05:47:48.092Z,61.61
2023-04-21T05:50:17.639Z,61.37
2023-04-21T05:52:47.452Z,61.41
2023-04-21T05:55:16.405Z,60.94
2023-04-21T05:57:45.673Z,60.24
2023-04-21T06:00:15.567Z,60.02
2023-04-21T06:02:45.885Z,59.93
2023-04-21T06:05:15.902Z,60.04
2023-04-21T06:07:45.446Z,60.11
2023-04-21T06:10:16.386Z,59.75
2023-04-21T06:12:46.365Z,59.19
2023-04-21T06:15:17.005Z,59.05
2023-04-21T06:17:47.249Z,58.94
2023-04-21T06:20:18.442Z,59.00
2023-04-21T06:22:48.304Z,59.32
2023-04-21T06:25:18.162Z,59.34
2023-04-21T06:27:49.118Z,59.03
2023-04-21T06:30:19.024Z,59.06
2023-04-21T06:32:49.974Z,59.23
2023-04-21T06:35:21.170Z,58.84
2023-04-21T06:37:58.807Z,58.50
2023-04-21T06:40:29.259Z,58.00
2023-04-21T06:42:59.865Z,57.49
2023-04-21T06:45:30.435Z,57.05
2023-04-21T06:48:00.487Z,56.80
2023-04-21T06:50:30.272Z,56.78
2023-04-21T06:52:59.976Z,56.78
2023-04-21T06:55:31.377Z,56.30
2023-04-21T06:58:02.595Z,55.95
2023-04-21T07:00:33.653Z,55.54
2023-04-21T07:03:06.588Z,55.25
2023-04-21T07:05:39.366Z,54.75
2023-04-21T07:08:10.148Z,54.48
2023-04-21T07:10:40.579Z,54.31
2023-04-21T07:13:10.543Z,53.80
2023-04-21T07:15:41.517Z,53.06
2023-04-21T07:18:11.441Z,52.38
2023-04-21T07:20:41.446Z,50.56
2023-04-21T07:23:11.643Z,49.24
2023-04-21T07:25:41.819Z,47.65
2023-04-21T07:28:11.710Z,46.06
2023-04-21T07:30:41.902Z,45.07
2023-04-21T07:33:11.214Z,44.65
2023-04-21T07:35:41.162Z,43.47
2023-04-21T07:38:10.738Z,42.78
2023-04-21T07:40:40.948Z,41.66
2023-04-21T07:43:13.202Z,40.68
2023-04-21T07:45:42.469Z,39.88
2023-04-21T07:48:13.664Z,38.93
2023-04-21T07:50:44.038Z,38.00
2023-04-21T07:53:13.904Z,37.38
2023-04-21T07:55:43.502Z,36.85
2023-04-21T07:58:14.728Z,36.59
2023-04-21T08:00:45.409Z,35.98
2023-04-21T08:03:18.681Z,35.67
2023-04-21T08:05:50.916Z,35.17
2023-04-21T08:08:22.452Z,34.61
2023-04-21T08:10:51.942Z,34.25
2023-04-21T08:13:26.765Z,33.89
2023-04-21T08:15:56.760Z,33.49
2023-04-21T08:18:26.946Z,32.64
2023-04-21T08:21:00.877Z,32.49
2023-04-21T08:23:34.380Z,31.84
2023-04-21T08:26:04.738Z,31.16
2023-04-21T08:28:35.352Z,31.22
2023-04-21T08:31:05.860Z,31.10
2023-04-21T08:33:37.695Z,30.33
2023-04-21T08:36:18.140Z,29.88
2023-04-21T08:38:56.143Z,29.09
2023-04-21T08:41:27.151Z,28.36
2023-04-21T08:43:56.879Z,27.60
2023-04-21T08:46:28.631Z,27.05
2023-04-21T08:48:59.546Z,26.62
2023-04-21T08:51:31.042Z,26.18
2023-04-21T08:53:59.851Z,25.39
2023-04-21T08:56:29.452Z,25.16
2023-04-21T08:58:59.154Z,24.66
2023-04-21T09:01:29.529Z,24.30
2023-04-21T09:04:20.315Z,23.91
2023-04-21T09:06:51.350Z,24.03
2023-04-21T09:09:21.876Z,23.71
2023-04-21T09:12:00.054Z,23.71
2023-04-21T09:14:33.694Z,22.90
2023-04-21T09:17:05.014Z,22.37
2023-04-21T09:19:35.249Z,21.76
2023-04-21T09:22:04.693Z,21.16
2023-04-21T09:24:34.362Z,20.74
2023-04-21T09:27:06.297Z,19.67
2023-04-21T09:29:36.777Z,19.62
2023-04-21T09:32:08.565Z,19.49
2023-04-21T09:34:44.336Z,19.28
2023-04-21T09:37:18.594Z,18.44
2023-04-21T09:40:00.909Z,18.00
2023-04-21T09:42:38.876Z,17.91
2023-04-21T09:47:54.929Z,17.66
2023-04-21T09:50:51.232Z,16.92
2023-04-21T09:53:17.804Z,17.17
2023-04-21T09:55:50.970Z,17.39
2023-04-21T09:58:25.798Z,16.48
2023-04-21T10:00:58.327Z,16.15
2023-04-21T10:03:30.849Z,15.42
2023-04-21T10:06:02.171Z,14.70
2023-04-21T10:08:33.043Z,14.86
2023-04-21T10:11:03.456Z,15.21
2023-04-21T10:13:33.910Z,15.20
2023-04-21T10:16:05.249Z,15.07
2023-04-21T10:18:54.446Z,15.00
2023-04-21T10:21:25.036Z,15.21
2023-04-21T10:23:54.937Z,15.08
2023-04-21T10:26:34.153Z,14.35
2023-04-21T10:29:10.092Z,13.97
2023-04-21T10:31:53.313Z,14.21
2023-04-21T10:34:39.014Z,14.29
2023-04-21T10:37:12.333Z,13.97
2023-04-21T10:39:48.758Z,13.88
2023-04-21T10:42:18.237Z,14.32
2023-04-21T10:45:00.174Z,14.83
2023-04-21T10:47:35.379Z,15.41
2023-04-21T10:50:30.321Z,15.62
2023-04-21T10:53:13.800Z,14.98
2023-04-21T10:55:49.998Z,14.71
2023-04-21T10:58:20.613Z,14.22
2023-04-21T11:00:56.649Z,13.74
2023-04-21T11:03:26.330Z,13.47
2023-04-21T11:05:56.437Z,12.97
2023-04-21T11:08:25.809Z,12.98
2023-04-21T11:10:57.736Z,13.00
2023-04-21T11:13:35.342Z,12.86
2023-04-21T11:16:08.966Z,12.77
2023-04-21T11:18:40.630Z,13.08
2023-04-21T11:21:21.492Z,12.61
2023-04-21T11:24:00.114Z,12.29
2023-04-21T11:26:39.138Z,12.18
2023-04-21T11:29:12.124Z,11.91
2023-04-21T11:31:47.550Z,11.75
2023-04-21T11:34:21.945Z,11.73
2023-04-21T11:36:56.363Z,11.70
2023-04-21T11:39:27.084Z,11.72
2023-04-21T11:41:59.868Z,11.90
2023-04-21T11:44:42.981Z,11.91
2023-04-21T11:47:25.555Z,11.63
2023-04-21T11:50:02.377Z,11.64
2023-04-21T11:52:37.780Z,12.00
2023-04-21T11:55:19.711Z,12.06
2023-04-21T11:57:52.051Z,11.95
2023-04-21T12:00:23.092Z,11.42
2023-04-21T12:02:58.243Z,11.70
2023-04-21T12:05:40.686Z,11.46
2023-04-21T12:08:17.320Z,11.58
2023-04-21T12:10:53.901Z,11.84
2023-04-21T12:13:25.973Z,12.28
2023-04-21T12:15:56.350Z,12.86
2023-04-21T12:18:31.794Z,12.88
2023-04-21T12:21:04.510Z,12.98
2023-04-21T12:23:35.242Z,12.82
2023-04-21T12:26:06.221Z,12.98
2023-04-21T12:28:38.500Z,13.05
2023-04-21T12:31:09.192Z,13.24
2023-04-21T12:33:38.876Z,13.63
2023-04-21T12:36:09.550Z,13.53
2023-04-21T12:38:40.688Z,13.41
2023-04-21T12:41:10.468Z,12.92
2023-04-21T12:43:40.106Z,12.76
2023-04-21T12:46:10.643Z,12.65
2023-04-21T12:48:40.007Z,12.51
2023-04-21T12:51:09.058Z,12.64
2023-04-21T12:53:39.104Z,12.54
2023-04-21T12:56:09.191Z,12.19
2023-04-21T12:58:41.767Z,12.17
2023-04-21T13:01:15.151Z,12.40
2023-04-21T13:03:47.132Z,12.73
2023-04-21T13:06:20.433Z,12.75
2023-04-21T13:08:54.042Z,12.79
2023-04-21T13:11:27.470Z,12.77
2023-04-21T13:13:59.625Z,12.90
2023-04-21T13:16:32.116Z,12.83
2023-04-21T13:19:02.707Z,12.30
2023-04-21T13:21:33.229Z,12.10
2023-04-21T13:24:03.402Z,11.92
2023-04-21T13:26:36.787Z,12.15
2023-04-21T13:29:06.272Z,12.20
2023-04-21T13:31:35.801Z,12.11
2023-04-21T13:34:04.659Z,12.11
2023-04-21T13:36:33.903Z,12.34
2023-04-21T13:39:04.819Z,12.12
2023-04-21T13:41:34.458Z,12.38
2023-04-21T13:44:06.212Z,13.02
2023-04-21T13:46:37.235Z,13.78
2023-04-21T13:49:07.218Z,15.03
2023-04-21T13:51:37.753Z,15.50
2023-04-21T13:54:07.484Z,16.70
2023-04-21T13:56:37.322Z,17.50
2023-04-21T13:59:06.913Z,18.33
2023-04-21T14:01:36.861Z,18.99
2023-04-21T14:04:09.214Z,19.36
2023-04-21T14:06:41.384Z,19.65
2023-04-21T14:09:11.529Z,19.69
2023-04-21T14:11:41.592Z,19.13
2023-04-21T14:14:11.549Z,20.12
2023-04-21T14:16:41.941Z,20.51
2023-04-21T14:19:11.614Z,20.53
2023-04-21T14:21:42.326Z,21.39
2023-04-21T14:24:12.208Z,21.79
2023-04-21T14:26:42.550Z,22.53
2023-04-21T14:29:14.088Z,23.13
2023-04-21T14:31:44.270Z,23.53
2023-04-21T14:34:13.936Z,24.05
2023-04-21T14:36:43.823Z,24.64
2023-04-21T14:39:16.374Z,25.51
2023-04-21T14:41:46.588Z,26.10
2023-04-21T14:44:19.434Z,26.64
2023-04-21T14:46:57.403Z,27.04
2023-04-21T14:49:35.674Z,26.75
2023-04-21T14:52:06.665Z,26.76
2023-04-21T14:54:36.775Z,26.93
2023-04-21T14:57:19.545Z,26.25
2023-04-21T14:59:53.569Z,25.13
2023-04-21T15:02:24.684Z,24.40
2023-04-21T15:04:54.513Z,23.93
2023-04-21T15:07:25.101Z,23.86
2023-04-21T15:09:56.064Z,23.59
2023-04-21T15:12:26.027Z,23.88
2023-04-21T15:14:55.410Z,23.87
2023-04-21T15:17:25.788Z,23.96
2023-04-21T15:19:55.583Z,23.43
2023-04-21T15:22:25.495Z,22.66
2023-04-21T15:24:55.839Z,21.84
2023-04-21T15:27:25.564Z,21.53
2023-04-21T15:29:55.056Z,21.38
2023-04-21T15:32:25.436Z,21.68
2023-04-21T15:34:54.948Z,22.03
2023-04-21T15:37:25.775Z,22.84
2023-04-21T15:39:55.923Z,23.08
2023-04-21T15:42:25.663Z,22.69
2023-04-21T15:44:56.169Z,22.85
2023-04-21T15:47:27.311Z,23.16
2023-04-21T15:49:58.109Z,23.22
2023-04-21T15:52:29.832Z,23.98
2023-04-21T15:54:59.564Z,24.60
2023-04-21T15:57:30.364Z,24.83
2023-04-21T15:59:59.830Z,24.84
2023-04-21T16:02:29.844Z,25.08
2023-04-21T16:05:00.111Z,25.35
2023-04-21T16:07:30.274Z,25.61
2023-04-21T16:09:59.462Z,26.00
2023-04-21T16:12:29.254Z,26.20
2023-04-21T16:15:09.400Z,26.38
2023-04-21T16:17:50.025Z,26.61
2023-04-21T16:20:19.641Z,27.05
2023-04-21T16:22:51.603Z,27.06
2023-04-21T16:25:21.488Z,27.02
2023-04-21T16:27:51.283Z,27.20
2023-04-21T16:30:20.828Z,27.28
2023-04-21T16:32:50.529Z,27.14
2023-04-21T16:35:20.347Z,27.17
2023-04-21T16:37:49.705Z,26.85
2023-04-21T16:40:20.381Z,27.14
2023-04-21T16:42:50.400Z,26.96
2023-04-21T16:45:19.795Z,27.22
2023-04-21T16:47:50.161Z,27.55
2023-04-21T16:50:19.674Z,27.74
2023-04-21T16:52:50.427Z,27.90
2023-04-21T16:55:21.056Z,27.77
2023-04-21T16:57:51.506Z,27.54
2023-04-21T17:00:22.029Z,27.90
2023-04-21T17:02:52.007Z,28.11
2023-04-21T17:05:21.919Z,28.91
2023-04-21T17:07:52.592Z,29.57
2023-04-21T17:10:24.595Z,29.71
2023-04-21T17:12:55.897Z,29.97
2023-04-21T17:15:26.438Z,30.32
2023-04-21T17:17:57.747Z,30.89
2023-04-21T17:20:29.148Z,31.14
2023-04-21T17:22:59.626Z,31.35
2023-04-21T17:25:29.323Z,31.80
2023-04-21T17:27:59.026Z,32.17
2023-04-21T17:30:28.270Z,32.15
2023-04-21T17:33:12.695Z,32.69
2023-04-21T17:35:59.880Z,32.97
2023-04-21T17:38:32.961Z,33.17
2023-04-21T17:41:03.468Z,33.49
2023-04-21T17:43:33.492Z,33.52
2023-04-21T17:46:03.030Z,33.71
2023-04-21T17:48:33.167Z,33.82
2023-04-21T17:51:02.450Z,33.76
2023-04-21T17:53:32.102Z,33.79
2023-04-21T17:56:01.795Z,33.80
2023-04-21T17:58:31.089Z,33.86
2023-04-21T18:01:00.080Z,33.94
2023-04-21T18:03:29.288Z,33.96
2023-04-21T18:05:59.672Z,33.96
2023-04-21T18:08:29.358Z,34.27
2023-04-21T18:10:58.160Z,34.51
2023-04-21T18:13:27.256Z,34.74
2023-04-21T18:15:56.601Z,35.08
2023-04-21T18:18:27.118Z,35.43
2023-04-21T18:20:56.758Z,35.61
2023-04-21T18:23:26.397Z,35.68
2023-04-21T18:25:55.695Z,35.71
2023-04-21T18:28:25.064Z,36.11
2023-04-21T18:30:54.697Z,35.97
2023-04-21T18:33:24.280Z,35.73
2023-04-21T18:35:54.411Z,36.01
2023-04-21T18:38:23.663Z,36.48
2023-04-21T18:40:52.733Z,36.73
2023-04-21T18:43:22.161Z,37.37
2023-04-21T18:45:52.102Z,37.52
2023-04-21T18:48:22.423Z,37.80
2023-04-21T18:50:51.940Z,38.64
2023-04-21T18:53:21.029Z,39.14
2023-04-21T18:55:50.497Z,39.12
2023-04-21T18:58:20.810Z,39.18
2023-04-21T19:00:50.509Z,39.42
2023-04-21T19:03:20.430Z,39.51
2023-04-21T19:05:50.103Z,39.96
2023-04-21T19:08:27.044Z,39.96
2023-04-21T19:11:04.117Z,40.47
2023-04-21T19:13:33.733Z,40.40
2023-04-21T19:16:05.706Z,40.68
2023-04-21T19:18:35.952Z,41.29
2023-04-21T19:21:06.678Z,41.44
2023-04-21T19:23:37.222Z,41.58
2023-04-21T19:26:09.404Z,41.65
2023-04-21T19:28:41.058Z,41.64
2023-04-21T19:31:11.148Z,41.93
2023-04-21T19:33:41.012Z,42.44
2023-04-21T19:36:10.790Z,42.83
2023-04-21T19:38:40.024Z,43.17
2023-04-21T19:41:12.062Z,43.78
2023-04-21T19:43:43.086Z,43.89
2023-04-21T19:46:14.959Z,44.13
2023-04-21T19:48:47.484Z,44.28
2023-04-21T19:51:16.843Z,44.31
2023-04-21T19:53:49.501Z,44.32
2023-04-21T19:56:25.951Z,44.25
2023-04-21T19:58:55.884Z,44.34
2023-04-21T20:01:24.887Z,44.59
2023-04-21T20:03:55.225Z,44.87
2023-04-21T20:06:26.430Z,45.02
2023-04-21T20:08:57.676Z,45.17
2023-04-21T20:11:30.655Z,45.45
2023-04-21T20:14:01.294Z,45.66
2023-04-21T20:16:31.332Z,45.63
2023-04-21T20:19:01.354Z,45.84
2023-04-21T20:21:33.512Z,45.86
2023-04-21T20:24:03.856Z,45.89
2023-04-21T20:26:34.316Z,46.31
2023-04-21T20:29:07.693Z,47.32
2023-04-21T20:31:40.674Z,47.70
2023-04-21T20:34:11.520Z,47.87
2023-04-21T20:36:42.552Z,47.77
2023-04-21T20:39:12.760Z,47.78
2023-04-21T20:41:48.050Z,47.66
2023-04-21T20:44:23.653Z,47.92
2023-04-21T20:46:53.656Z,48.14
2023-04-21T20:49:23.814Z,48.32
2023-04-21T20:52:01.706Z,48.67
2023-04-21T20:54:35.474Z,48.69
2023-04-21T20:57:05.168Z,48.86
2023-04-21T20:59:35.826Z,48.85
2023-04-21T21:02:05.721Z,48.92
2023-04-21T21:04:35.868Z,48.93
2023-04-21T21:07:05.662Z,49.13
2023-04-21T21:09:35.607Z,49.14
2023-04-21T21:12:06.169Z,49.26
2023-04-21T21:14:36.323Z,49.47
2023-04-21T21:17:05.757Z,49.45
2023-04-21T21:19:35.536Z,49.40
2023-04-21T21:22:05.772Z,49.49
2023-04-21T21:24:35.628Z,49.42
2023-04-21T21:27:05.115Z,49.74
2023-04-21T21:29:34.759Z,50.26
2023-04-21T21:32:05.210Z,50.76
2023-04-21T21:34:35.087Z,50.90
2023-04-21T21:37:04.887Z,51.05
2023-04-21T21:39:34.102Z,51.52
2023-04-21T21:42:04.994Z,51.34
2023-04-21T21:44:34.903Z,51.38
2023-04-21T21:47:04.058Z,51.63
2023-04-21T21:49:34.092Z,51.65
2023-04-21T21:52:04.500Z,51.67
2023-04-21T21:54:35.591Z,51.35
2023-04-21T21:57:05.252Z,51.79
2023-04-21T21:59:35.733Z,52.03
2023-04-21T22:02:06.772Z,52.64
2023-04-21T22:04:36.282Z,52.74
2023-04-21T22:07:05.576Z,52.57
2023-04-21T22:09:37.304Z,53.00
2023-04-21T22:12:07.673Z,53.09
2023-04-21T22:14:37.700Z,53.25
2023-04-21T22:17:07.136Z,53.22
2023-04-21T22:19:36.310Z,53.56
2023-04-21T22:22:05.840Z,53.98
2023-04-21T22:24:35.425Z,54.24
2023-04-21T22:27:05.160Z,54.16
2023-04-21T22:29:34.394Z,54.16
2023-04-21T22:32:04.264Z,54.20
2023-04-21T22:34:33.252Z,54.14
2023-04-21T22:37:02.950Z,54.25
2023-04-21T22:39:32.353Z,54.61
2023-04-21T22:42:03.249Z,54.73
2023-04-21T22:44:32.395Z,54.65
2023-04-21T22:47:01.942Z,54.79
2023-04-21T22:49:31.328Z,54.78
2023-04-21T22:52:01.065Z,54.78
2023-04-21T22:54:30.607Z,54.85
2023-04-21T22:56:59.936Z,54.71
2023-04-21T22:59:30.256Z,54.81
2023-04-21T23:02:00.316Z,54.35
2023-04-21T23:04:31.223Z,53.95
2023-04-21T23:06:59.822Z,53.83
2023-04-21T23:09:28.910Z,53.83
2023-04-21T23:11:58.027Z,53.83
2023-04-21T23:14:27.128Z,54.14
2023-04-21T23:16:56.389Z,54.85
2023-04-21T23:19:25.216Z,55.18
2023-04-21T23:21:54.480Z,55.28
2023-04-21T23:24:23.854Z,55.50
2023-04-21T23:26:52.971Z,55.34
2023-04-21T23:29:22.065Z,55.45
2023-04-21T23:31:51.410Z,55.85
2023-04-21T23:34:20.624Z,56.17
2023-04-21T23:36:49.891Z,55.89
2023-04-21T23:39:21.681Z,55.72
2023-04-21T23:41:50.771Z,55.71
2023-04-21T23:44:20.179Z,56.11
2023-04-21T23:46:49.640Z,56.34
2023-04-21T23:49:19.029Z,56.76
2023-04-21T23:51:49.113Z,56.68
2023-04-21T23:54:18.385Z,56.79
2023-04-21T23:56:47.762Z,56.97
2023-04-21T23:59:16.891Z,57.40
